Time;durP1;ratioP1;P1;durP2;ratioP2;P2;SDS_P1;SDS_P2;PMS_P1;PMS_P2;Temp;Humidity;BMP_temperature;BMP_pressure;BME280_temperature;BME280_humidity;BME280_pressure;Samples;Min_cycle;Max_cycle;Signal;HPM_P1;HPM_P2
2022/09/20 00:01:14;;;;;;;1.50;0.77;;;20.40;70.40;;;;;;5091023;28;20024;-78
2022/09/20 00:03:44;;;;;;;4.32;0.98;;;20.40;70.30;;;;;;5074549;28;20042;-78
2022/09/20 00:06:14;;;;;;;5.53;1.10;;;20.40;70.40;;;;;;5091072;28;20024;-78
2022/09/20 00:08:39;;;;;;;6.40;0.98;;;20.40;70.40;;;;;;5091258;28;20044;-79
2022/09/20 00:11:08;;;;;;;3.22;1.05;;;20.40;70.50;;;;;;5092110;28;20480;-78
2022/09/20 00:13:34;;;;;;;6.28;1.23;;;20.40;70.50;;;;;;5091103;28;20028;-78
2022/09/20 00:16:04;;;;;;;1.45;0.93;;;20.40;70.50;;;;;;5074062;28;20035;-77
2022/09/20 00:18:29;;;;;;;4.82;0.82;;;20.40;70.60;;;;;;5090934;28;20026;-78
2022/09/20 00:20:55;;;;;;;5.75;0.90;;;20.40;70.60;;;;;;5080561;28;20028;-78
2022/09/20 00:23:20;;;;;;;5.00;1.65;;;20.40;70.60;;;;;;5071905;28;20017;-78
2022/09/20 00:25:54;;;;;;;1.45;1.02;;;20.40;70.70;;;;;;5072007;28;20043;-79
2022/09/20 00:28:19;;;;;;;4.10;1.10;;;20.40;70.70;;;;;;5070574;28;20476;-79
2022/09/20 00:30:45;;;;;;;2.55;1.42;;;20.40;70.70;;;;;;5073889;28;20028;-79
2022/09/20 00:33:10;;;;;;;3.92;0.98;;;20.40;70.70;;;;;;5112094;28;20035;-78
2022/09/20 00:35:36;;;;;;;2.67;1.05;;;20.40;70.70;;;;;;5111137;28;20031;-78
2022/09/20 00:38:02;;;;;;;5.13;0.80;;;20.40;70.70;;;;;;5112192;28;20019;-79
2022/09/20 00:40:29;;;;;;;3.22;0.98;;;20.40;70.70;;;;;;5112302;28;20290;-79
2022/09/20 00:42:54;;;;;;;3.72;0.90;;;20.40;70.70;;;;;;5112011;28;20498;-79
2022/09/20 00:45:21;;;;;;;2.03;1.08;;;20.40;70.70;;;;;;5112720;28;20033;-78
2022/09/20 00:47:49;;;;;;;3.72;1.00;;;20.40;70.70;;;;;;5111014;28;20612;-78
2022/09/20 00:50:39;;;;;;;1.67;1.02;;;20.40;70.70;;;;;;5111897;28;20051;-78
2022/09/20 00:53:11;;;;;;;1.95;1.02;;;20.40;70.70;;;;;;5114474;28;20024;-78
2022/09/20 00:55:44;;;;;;;;;;;20.40;70.70;;;;;;5115120;28;20030;-79
2022/09/20 00:58:09;;;;;;;2.03;0.88;;;20.40;70.70;;;;;;5114662;28;19904;-78
2022/09/20 01:00:36;;;;;;;4.65;1.00;;;20.40;70.80;;;;;;5114782;28;20035;-78
2022/09/20 01:03:03;;;;;;;4.82;0.90;;;20.40;70.90;;;;;;5114551;28;20053;-79
2022/09/20 01:05:29;;;;;;;1.63;0.95;;;20.40;70.80;;;;;;5114694;28;20107;-78
2022/09/20 01:07:55;;;;;;;4.32;1.17;;;20.40;70.80;;;;;;5114438;28;20625;-79
2022/09/20 01:10:20;;;;;;;1.55;1.00;;;20.40;70.90;;;;;;5097409;28;20020;-78
2022/09/20 01:12:46;;;;;;;2.33;1.02;;;20.40;70.90;;;;;;5115616;28;20037;-78
2022/09/20 01:15:13;;;;;;;4.53;1.30;;;20.40;71.00;;;;;;5114220;28;20034;-79
2022/09/20 01:17:40;;;;;;;9.25;1.20;;;20.40;71.00;;;;;;5097573;28;20099;-78
2022/09/20 01:20:06;;;;;;;5.20;1.20;;;20.40;71.10;;;;;;5088093;28;20044;-78
2022/09/20 01:22:55;;;;;;;4.05;0.88;;;20.40;72.10;;;;;;5074785;28;20067;-79
2022/09/20 01:25:26;;;;;;;1.95;0.93;;;20.40;71.10;;;;;;5074478;28;20495;-78
2022/09/20 01:27:52;;;;;;;8.48;1.20;;;20.40;71.10;;;;;;5074225;28;20115;-78
2022/09/20 01:30:22;;;;;;;2.10;1.10;;;20.40;71.00;;;;;;5073434;28;20021;-78
2022/09/20 01:33:09;;;;;;;4.22;0.95;;;20.40;72.00;;;;;;5110248;28;20028;-78
2022/09/20 01:35:35;;;;;;;3.25;1.15;;;20.40;71.00;;;;;;5114001;28;20501;-78
2022/09/20 01:38:26;;;;;;;3.97;1.00;;;20.40;71.10;;;;;;5115205;28;20043;-78
2022/09/20 01:41:13;;;;;;;5.40;1.38;;;20.40;71.00;;;;;;5094938;28;20020;-79
2022/09/20 01:43:55;;;;;;;6.15;1.10;;;20.30;71.00;;;;;;5093984;28;20044;-78
2022/09/20 01:46:33;;;;;;;2.90;1.00;;;20.30;70.90;;;;;;5072411;28;20058;-78
2022/09/20 01:49:24;;;;;;;5.30;1.38;;;20.30;71.00;;;;;;5077564;28;20056;-79
2022/09/20 01:52:08;;;;;;;3.05;1.27;;;20.30;71.00;;;;;;5093065;28;20028;-78
2022/09/20 01:55:01;;;;;;;3.05;1.25;;;20.30;70.90;;;;;;5074310;28;20024;-78
2022/09/20 01:57:29;;;;;;;;;;;20.30;71.00;;;;;;5078715;28;20024;-79
2022/09/20 02:00:04;;;;;;;1.92;0.93;;;20.30;71.00;;;;;;5094268;28;20398;-78
2022/09/20 02:02:54;;;;;;;3.67;1.50;;;20.30;71.00;;;;;;5093760;28;20081;-78
2022/09/20 02:05:40;;;;;;;1.52;0.73;;;20.30;71.00;;;;;;5094217;28;20028;-78
2022/09/20 02:08:34;;;;;;;1.80;0.98;;;20.30;71.00;;;;;;5076071;28;20472;-79
2022/09/20 02:11:16;;;;;;;2.85;1.00;;;20.30;70.90;;;;;;5093843;28;20036;-78
2022/09/20 02:13:48;;;;;;;3.00;0.90;;;20.30;71.00;;;;;;5092858;28;20020;-78
2022/09/20 02:16:32;;;;;;;1.52;0.93;;;20.30;71.00;;;;;;5093709;28;20027;-78
2022/09/20 02:19:30;;;;;;;1.70;1.10;;;20.30;70.90;;;;;;5094048;28;20024;-78
2022/09/20 02:22:05;;;;;;;1.55;0.90;;;20.30;70.90;;;;;;5072682;28;20082;-78
2022/09/20 02:24:59;;;;;;;2.53;1.02;;;20.30;70.90;;;;;;5073054;28;20032;-78
2022/09/20 02:27:53;;;;;;;1.30;0.80;;;20.30;71.00;;;;;;5072432;28;20039;-78
2022/09/20 02:30:41;;;;;;;3.88;1.13;;;20.30;71.00;;;;;;5072387;28;20476;-78
2022/09/20 02:33:30;;;;;;;2.33;1.10;;;20.30;71.00;;;;;;5072296;28;20388;-78
2022/09/20 02:36:23;;;;;;;4.47;1.27;;;20.30;71.00;;;;;;5072280;28;20032;-79
2022/09/20 02:38:59;;;;;;;6.00;1.00;;;20.30;71.20;;;;;;5073342;28;20025;-78
2022/09/20 02:41:39;;;;;;;2.15;1.02;;;20.30;71.20;;;;;;5072055;28;20079;-79
2022/09/20 02:44:42;;;;;;;1.45;0.90;;;20.30;71.10;;;;;;5073238;28;20529;-78
2022/09/20 02:47:30;;;;;;;3.75;0.95;;;20.20;71.00;;;;;;5073206;28;20488;-79
2022/09/20 02:50:21;;;;;;;5.03;1.05;;;20.30;71.20;;;;;;5071745;28;20076;-78
2022/09/20 02:53:07;;;;;;;3.50;0.98;;;20.30;71.10;;;;;;5073245;28;20484;-79
2022/09/20 02:55:46;;;;;;;2.80;0.80;;;20.30;71.10;;;;;;5072657;28;20029;-79
2022/09/20 02:58:43;;;;;;;6.03;1.13;;;20.20;71.10;;;;;;5056317;28;20031;-78
2022/09/20 03:01:16;;;;;;;1.33;0.90;;;20.20;71.10;;;;;;5071833;28;20008;-78
2022/09/20 03:03:50;;;;;;;4.10;1.25;;;20.20;71.10;;;;;;5071546;28;20534;-78
2022/09/20 03:06:34;;;;;;;2.08;1.40;;;20.30;71.20;;;;;;5055704;28;20484;-79
2022/09/20 03:09:21;;;;;;;1.95;0.88;;;20.30;71.10;;;;;;5072619;28;20060;-78
2022/09/20 03:12:05;;;;;;;6.53;1.15;;;20.20;71.10;;;;;;5072720;28;20031;-78
2022/09/20 03:15:00;;;;;;;1.23;0.80;;;20.20;71.00;;;;;;5071628;28;20029;-78
2022/09/20 03:17:32;;;;;;;2.35;0.80;;;20.20;71.00;;;;;;5017248;28;20044;-78
2022/09/20 03:20:24;;;;;;;1.83;0.73;;;20.20;71.00;;;;;;5033933;28;20473;-78
2022/09/20 03:22:53;;;;;;;1.08;0.80;;;20.20;71.00;;;;;;5050381;28;20043;-79
2022/09/20 03:25:49;;;;;;;1.88;0.95;;;20.30;71.10;;;;;;5033725;28;20029;-78
2022/09/20 03:28:53;;;;;;;2.95;0.88;;;20.20;71.00;;;;;;5033604;28;20069;-78
2022/09/20 03:31:40;;;;;;;3.05;1.00;;;20.20;71.00;;;;;;5055443;28;20032;-79
2022/09/20 03:34:43;;;;;;;11.70;1.45;;;20.20;71.00;;;;;;5070410;28;20113;-78
2022/09/20 03:37:20;;;;;;;4.85;0.98;;;20.20;71.00;;;;;;5070176;28;20037;-79
2022/09/20 03:40:10;;;;;;;3.75;1.00;;;20.20;71.00;;;;;;5070164;28;20028;-78
2022/09/20 03:42:38;;;;;;;1.80;0.90;;;20.20;71.00;;;;;;5070031;28;20036;-79
2022/09/20 03:45:41;;;;;;;4.30;0.77;;;20.20;71.00;;;;;;5037154;28;20454;-78
2022/09/20 03:48:47;;;;;;;4.00;1.05;;;20.20;71.00;;;;;;5053582;28;20036;-78
2022/09/20 03:51:19;;;;;;;2.25;0.85;;;20.20;71.00;;;;;;5055898;28;20097;-79
2022/09/20 03:54:22;;;;;;;1.52;0.80;;;20.20;71.00;;;;;;5062863;28;20032;-78
2022/09/20 03:56:51;;;;;;;3.35;0.82;;;20.20;71.00;;;;;;5112748;28;20028;-78
2022/09/20 03:59:19;;;;;;;1.27;0.93;;;20.20;71.00;;;;;;5112679;28;20403;-78
2022/09/20 04:01:50;;;;;;;1.77;1.02;;;20.20;71.10;;;;;;5112721;28;20050;-78
2022/09/20 04:04:42;;;;;;;1.20;0.90;;;20.20;71.00;;;;;;5111486;28;20028;-78
2022/09/20 04:07:16;;;;;;;2.53;0.90;;;20.20;71.00;;;;;;5111620;28;20054;-78
2022/09/20 04:10:02;;;;;;;6.03;1.50;;;20.20;71.00;;;;;;5111143;28;20028;-79
2022/09/20 04:12:28;;;;;;;1.65;0.82;;;20.20;71.10;;;;;;5111347;28;20012;-78
2022/09/20 04:15:19;;;;;;;1.48;1.08;;;20.20;71.20;;;;;;5112624;28;20395;-79
2022/09/20 04:17:51;;;;;;;4.53;1.23;;;20.20;71.10;;;;;;5111678;28;20067;-79
2022/09/20 04:20:25;;;;;;;4.00;1.05;;;20.20;71.10;;;;;;5098826;28;20013;-78
2022/09/20 04:22:51;;;;;;;6.70;1.10;;;20.20;71.10;;;;;;5072026;28;20111;-78
2022/09/20 04:25:22;;;;;;;2.50;1.00;;;20.20;71.10;;;;;;5070703;28;20568;-79
2022/09/20 04:27:58;;;;;;;3.10;1.20;;;20.20;71.10;;;;;;5074356;28;20362;-78
2022/09/20 04:30:27;;;;;;;1.05;0.90;;;20.20;71.00;;;;;;5074614;28;20031;-78
2022/09/20 04:33:03;;;;;;;2.22;0.80;;;20.20;71.00;;;;;;5112824;28;20024;-78
2022/09/20 04:38:42;;;;;;;;;;;20.20;71.10;;;;;;5109296;28;20038;-79
2022/09/20 04:41:19;;;;;;;2.33;0.90;;;20.20;71.10;;;;;;5116261;28;19903;-78
2022/09/20 04:43:57;;;;;;;2.10;1.00;;;20.20;71.10;;;;;;5116324;28;20387;-78
2022/09/20 04:46:32;;;;;;;2.38;0.90;;;20.20;71.20;;;;;;5116120;28;20035;-79
2022/09/20 04:49:01;;;;;;;8.20;1.02;;;20.20;71.20;;;;;;5116305;28;20020;-78
2022/09/20 04:51:42;;;;;;;2.45;0.95;;;20.20;71.20;;;;;;5115879;28;20161;-79
2022/09/20 04:54:12;;;;;;;2.72;0.80;;;20.20;71.20;;;;;;5116202;28;20031;-78
2022/09/20 04:56:43;;;;;;;1.08;0.80;;;20.20;71.20;;;;;;5114766;28;20024;-78
2022/09/20 04:59:33;;;;;;;1.10;0.90;;;20.20;71.20;;;;;;5115838;28;20020;-78
2022/09/20 05:02:32;;;;;;;3.60;1.10;;;20.20;71.20;;;;;;5114842;28;20020;-79
2022/09/20 05:05:28;;;;;;;2.38;0.88;;;20.20;71.20;;;;;;5115566;28;20028;-78
2022/09/20 05:08:48;;;;;;;1.50;0.90;;;20.20;71.20;;;;;;5115023;28;20483;-78
2022/09/20 05:11:14;;;;;;;2.92;0.80;;;20.20;71.20;;;;;;5016660;28;20026;-78
2022/09/20 05:14:05;;;;;;;1.60;0.93;;;20.20;71.30;;;;;;5032833;28;20045;-78
2022/09/20 05:16:59;;;;;;;2.92;0.80;;;20.20;71.20;;;;;;5016187;28;20033;-78
2022/09/20 05:19:28;;;;;;;2.08;0.80;;;20.20;71.20;;;;;;5016151;28;20147;-78
2022/09/20 05:22:16;;;;;;;2.03;0.95;;;20.20;71.20;;;;;;4994193;28;20039;-79
2022/09/20 05:25:00;;;;;;;3.63;0.90;;;20.10;71.20;;;;;;4977748;28;20031;-79
2022/09/20 05:27:45;;;;;;;4.07;1.48;;;20.10;71.20;;;;;;4977645;28;20022;-78
2022/09/20 05:30:49;;;;;;;3.80;1.00;;;20.20;71.20;;;;;;4977384;28;20109;-79
2022/09/20 05:33:45;;;;;;;8.77;1.90;;;20.10;71.20;;;;;;4954310;29;20062;-79
2022/09/20 05:36:36;;;;;;;3.67;1.00;;;20.10;71.20;;;;;;4938211;29;20035;-78
2022/09/20 05:39:27;;;;;;;3.97;1.08;;;20.10;71.20;;;;;;4953636;28;20023;-78
2022/09/20 05:42:17;;;;;;;2.75;1.10;;;20.10;71.20;;;;;;4937238;29;20166;-78
2022/09/20 05:45:22;;;;;;;2.75;1.02;;;20.10;71.30;;;;;;4941145;29;20140;-77
2022/09/20 05:47:55;;;;;;;2.60;1.20;;;20.10;71.20;;;;;;4938000;29;20046;-78
2022/09/20 05:50:42;;;;;;;1.45;0.80;;;20.10;71.30;;;;;;4937879;29;20563;-79
2022/09/20 05:53:32;;;;;;;5.32;1.25;;;20.10;71.20;;;;;;4954141;29;20415;-78
2022/09/20 05:56:01;;;;;;;1.55;0.90;;;20.10;71.20;;;;;;4953983;29;20039;-78
2022/09/20 05:58:35;;;;;;;3.55;0.80;;;20.10;71.30;;;;;;4938105;29;20117;-78
2022/09/20 06:01:12;;;;;;;3.13;0.93;;;20.10;71.30;;;;;;4937932;29;20085;-78
2022/09/20 06:03:54;;;;;;;3.67;1.15;;;20.10;71.30;;;;;;4938138;29;20031;-76
2022/09/20 06:06:44;;;;;;;1.10;1.00;;;20.10;71.30;;;;;;4932771;29;20408;-76
2022/09/20 06:09:28;;;;;;;3.00;1.42;;;20.10;69.40;;;;;;4970766;28;20487;-76
2022/09/20 06:12:00;;;;;;;1.98;1.30;;;20.00;68.60;;;;;;4992057;28;20506;-76
2022/09/20 06:15:03;;;;;;;1.52;1.17;;;20.00;68.40;;;;;;4992187;28;20030;-76
2022/09/20 06:17:34;;;;;;;;;;;20.00;68.40;;;;;;4976654;28;20069;-76
2022/09/20 06:20:15;;;;;;;1.92;1.20;;;20.00;68.70;;;;;;5066209;28;20368;-76
2022/09/20 06:22:46;;;;;;;3.33;1.13;;;20.00;68.40;;;;;;5072187;28;20024;-77
2022/09/20 06:25:11;;;;;;;3.30;1.70;;;19.90;68.20;;;;;;5072482;28;20021;-77
2022/09/20 06:27:58;;;;;;;2.75;1.20;;;19.90;68.20;;;;;;5073586;28;20033;-76
2022/09/20 06:30:38;;;;;;;2.40;1.40;;;19.90;68.10;;;;;;5072347;28;20028;-77
2022/09/20 06:33:13;;;;;;;2.40;1.30;;;19.90;68.10;;;;;;5071798;28;20024;-77
2022/09/20 06:41:43;;;;;;;1.90;1.55;;;19.80;67.90;;;;;;5086129;28;20023;-76
2022/09/20 06:44:08;;;;;;;2.47;1.60;;;19.80;68.00;;;;;;5075544;28;20400;-76
2022/09/20 06:46:35;;;;;;;5.05;1.70;;;19.80;67.90;;;;;;5093361;28;20025;-76
2022/09/20 06:49:01;;;;;;;2.42;1.40;;;19.80;67.90;;;;;;5093219;28;20020;-76
2022/09/20 06:51:27;;;;;;;2.78;1.35;;;19.80;67.90;;;;;;5092243;28;20016;-76
2022/09/20 06:53:53;;;;;;;3.47;1.23;;;19.80;67.90;;;;;;5092163;28;20023;-77
2022/09/20 06:56:21;;;;;;;3.65;1.70;;;19.80;67.90;;;;;;5091969;28;20020;-76
2022/09/20 06:58:47;;;;;;;10.85;2.95;;;19.80;68.00;;;;;;5090404;28;20030;-76
2022/09/20 07:01:13;;;;;;;15.65;3.15;;;19.80;68.10;;;;;;5091691;28;20095;-76
2022/09/20 07:03:41;;;;;;;11.25;2.40;;;19.80;68.20;;;;;;5092135;28;20028;-76
2022/09/20 07:06:07;;;;;;;15.50;3.03;;;19.80;68.30;;;;;;5091943;28;20119;-76
2022/09/20 07:08:33;;;;;;;10.75;2.88;;;19.80;68.40;;;;;;5095701;28;20098;-76
2022/09/20 07:11:08;;;;;;;15.18;3.50;;;19.80;68.40;;;;;;5103066;28;20409;-76
2022/09/20 07:13:35;;;;;;;12.30;2.80;;;19.80;68.50;;;;;;5097346;28;20105;-75
2022/09/20 07:16:04;;;;;;;11.68;3.30;;;19.80;68.60;;;;;;5092766;28;20016;-76
2022/09/20 07:18:32;;;;;;;18.00;3.70;;;19.80;68.70;;;;;;5112846;28;20487;-76
2022/09/20 07:20:58;;;;;;;9.85;3.17;;;19.70;68.80;;;;;;5100101;28;20031;-76
2022/09/20 07:23:28;;;;;;;13.20;3.13;;;19.80;68.80;;;;;;5090407;28;20105;-76
2022/09/20 07:25:58;;;;;;;15.02;3.67;;;19.70;68.80;;;;;;5103072;28;20044;-76
2022/09/20 07:28:23;;;;;;;9.98;3.65;;;19.80;68.80;;;;;;5111917;28;20038;-76
2022/09/20 07:30:50;;;;;;;11.85;3.35;;;19.80;68.90;;;;;;5111548;28;20024;-76
2022/09/20 07:33:20;;;;;;;12.00;3.55;;;19.80;68.90;;;;;;5113016;28;20407;-76
2022/09/20 07:35:46;;;;;;;7.75;3.13;;;19.70;68.90;;;;;;5112838;28;20439;-76
2022/09/20 07:38:12;;;;;;;7.85;2.95;;;19.70;69.00;;;;;;5111706;28;20024;-76
2022/09/20 07:40:38;;;;;;;13.27;3.33;;;19.70;68.90;;;;;;5112792;28;20137;-76
2022/09/20 07:43:03;;;;;;;9.95;3.50;;;19.70;68.90;;;;;;5101294;28;20407;-76
2022/09/20 07:45:30;;;;;;;14.10;3.88;;;19.70;68.90;;;;;;5091218;28;20052;-76
2022/09/20 07:47:58;;;;;;;9.23;3.47;;;19.70;69.00;;;;;;5092391;28;20034;-76
2022/09/20 07:50:24;;;;;;;10.98;3.55;;;19.70;68.90;;;;;;5090929;28;20043;-76
2022/09/20 07:52:50;;;;;;;15.75;3.75;;;19.70;68.90;;;;;;5092471;28;20030;-76
2022/09/20 07:55:15;;;;;;;9.90;3.42;;;19.70;69.00;;;;;;5091105;28;20036;-76
2022/09/20 07:57:41;;;;;;;12.70;3.45;;;19.70;69.00;;;;;;5091128;28;20095;-76
2022/09/20 08:00:08;;;;;;;15.13;3.70;;;19.70;69.00;;;;;;5092363;28;20423;-76
2022/09/20 08:02:34;;;;;;;8.68;3.63;;;19.70;69.00;;;;;;5080550;28;20032;-76
2022/09/20 08:05:00;;;;;;;14.18;3.30;;;19.70;70.00;;;;;;5098871;28;20077;-76
2022/09/20 08:07:25;;;;;;;10.10;3.42;;;19.60;69.00;;;;;;5099119;28;20024;-76
2022/09/20 08:09:51;;;;;;;9.32;3.40;;;19.60;69.00;;;;;;5081512;28;20119;-76
2022/09/20 08:12:18;;;;;;;13.85;3.55;;;19.70;69.00;;;;;;5078778;28;20059;-76
2022/09/20 08:14:44;;;;;;;15.75;3.80;;;19.70;69.00;;;;;;5078206;28;20051;-76
2022/09/20 08:17:10;;;;;;;6.78;3.00;;;19.60;69.00;;;;;;5100644;28;20023;-76
2022/09/20 08:19:38;;;;;;;11.60;3.47;;;19.60;69.00;;;;;;5118206;28;20144;-76
2022/09/20 08:22:04;;;;;;;11.10;2.80;;;19.60;69.00;;;;;;5118375;28;20023;-76
2022/09/20 08:24:31;;;;;;;9.23;3.08;;;19.60;69.00;;;;;;5118158;28;20020;-76
2022/09/20 08:26:57;;;;;;;9.98;3.30;;;19.60;69.00;;;;;;5117785;28;20028;-76
2022/09/20 08:29:23;;;;;;;8.85;3.45;;;19.60;69.00;;;;;;5119395;27;20072;-76
2022/09/20 08:31:50;;;;;;;10.32;3.42;;;19.60;69.00;;;;;;5119245;27;20487;-76
2022/09/20 08:34:17;;;;;;;7.88;2.97;;;19.60;69.10;;;;;;5118076;28;20471;-76
2022/09/20 08:36:50;;;;;;;8.73;3.22;;;19.60;69.10;;;;;;5119256;28;20026;-76
2022/09/20 08:39:16;;;;;;;12.52;3.85;;;19.50;69.00;;;;;;5101987;28;20548;-76
2022/09/20 08:41:47;;;;;;;10.43;3.58;;;19.50;69.00;;;;;;5118878;27;20028;-76
2022/09/20 08:44:15;;;;;;;8.52;3.10;;;19.60;69.10;;;;;;5101746;28;20020;-76
2022/09/20 08:46:42;;;;;;;10.15;3.63;;;19.60;69.10;;;;;;5119209;27;20027;-76
2022/09/20 08:49:10;;;;;;;9.20;3.05;;;19.60;69.10;;;;;;5100581;28;20035;-76
2022/09/20 08:51:38;;;;;;;7.57;3.30;;;19.60;69.10;;;;;;5117928;28;20509;-76
2022/09/20 08:54:06;;;;;;;9.35;2.92;;;19.50;69.00;;;;;;5100975;28;20016;-76
2022/09/20 08:56:37;;;;;;;10.20;3.22;;;19.50;69.00;;;;;;5117593;28;20077;-76
2022/09/20 08:59:04;;;;;;;;;;;19.50;69.00;;;;;;5119263;27;20423;-76
2022/09/20 09:01:32;;;;;;;9.68;3.20;;;19.50;69.00;;;;;;5118049;28;19904;-76
2022/09/20 09:04:22;;;;;;;5.63;2.88;;;19.50;69.10;;;;;;5118863;27;20047;-76
2022/09/20 09:06:48;;;;;;;8.77;3.42;;;19.50;69.00;;;;;;5117839;28;20028;-76
2022/09/20 09:09:18;;;;;;;8.05;2.80;;;19.50;69.10;;;;;;5078849;28;20063;-76
2022/09/20 09:11:44;;;;;;;6.40;2.70;;;19.50;69.10;;;;;;5076630;28;20078;-76
2022/09/20 09:17:09;;;;;;;10.07;3.17;;;19.50;69.00;;;;;;5095055;28;20450;-76
2022/09/20 09:19:57;;;;;;;9.93;2.90;;;19.50;69.10;;;;;;5114205;28;20023;-76
2022/09/20 09:22:36;;;;;;;8.65;3.53;;;19.50;69.00;;;;;;5098257;28;20077;-76
2022/09/20 09:25:13;;;;;;;8.63;2.92;;;19.50;69.10;;;;;;5115105;28;20544;-76
2022/09/20 09:28:04;;;;;;;6.57;2.97;;;19.50;69.10;;;;;;5115475;28;20024;-76
2022/09/20 09:30:37;;;;;;;7.32;2.88;;;19.50;69.10;;;;;;5114217;28;20039;-76
2022/09/20 09:33:25;;;;;;;9.38;3.53;;;19.50;69.10;;;;;;5097878;28;20125;-76
2022/09/20 09:35:58;;;;;;;9.10;2.85;;;19.50;69.00;;;;;;5114017;28;20102;-76
2022/09/20 09:38:24;;;;;;;;;;;19.50;69.10;;;;;;5114559;28;20040;-76
2022/09/20 09:41:14;;;;;;;4.63;2.30;;;19.40;69.00;;;;;;5115034;28;19904;-76
2022/09/20 09:43:40;;;;;;;7.72;2.83;;;19.50;69.10;;;;;;5104094;28;20040;-76
2022/09/20 09:46:22;;;;;;;4.80;2.58;;;19.40;69.00;;;;;;5096800;28;20016;-76
2022/09/20 09:49:18;;;;;;;11.32;2.95;;;19.50;69.10;;;;;;5097773;28;20510;-76
2022/09/20 09:52:01;;;;;;;5.38;2.50;;;19.40;69.10;;;;;;5106073;28;20301;-76
2022/09/20 09:54:50;;;;;;;7.32;2.75;;;19.40;69.10;;;;;;5114686;28;20059;-76
2022/09/20 09:57:27;;;;;;;6.22;2.78;;;19.40;69.10;;;;;;5113377;28;20023;-76
2022/09/20 09:59:56;;;;;;;7.10;2.70;;;19.40;69.10;;;;;;5114864;28;20094;-76
2022/09/20 10:02:32;;;;;;;7.38;2.42;;;19.40;69.10;;;;;;5114869;28;20045;-76
2022/09/20 10:04:59;;;;;;;7.88;2.50;;;19.40;69.00;;;;;;5114624;28;20572;-76
2022/09/20 10:07:47;;;;;;;5.80;2.50;;;19.40;69.10;;;;;;5113630;28;20046;-76
2022/09/20 10:10:45;;;;;;;5.75;2.90;;;19.40;69.10;;;;;;5075996;28;20100;-76
2022/09/20 10:13:23;;;;;;;6.60;2.53;;;19.40;69.10;;;;;;5031596;28;20049;-76
2022/09/20 10:15:50;;;;;;;5.53;2.50;;;19.40;69.10;;;;;;5031584;28;20072;-76
2022/09/20 10:18:25;;;;;;;7.00;2.70;;;19.40;69.00;;;;;;5071252;28;20083;-76
2022/09/20 10:21:16;;;;;;;8.00;2.20;;;19.40;69.10;;;;;;5071785;28;20017;-76
2022/09/20 10:24:22;;;;;;;7.68;3.13;;;19.40;69.00;;;;;;5054321;28;20120;-76
2022/09/20 10:27:06;;;;;;;7.03;2.88;;;19.40;69.00;;;;;;5046068;28;20082;-76
2022/09/20 10:29:45;;;;;;;4.35;2.22;;;19.40;69.10;;;;;;5071543;28;20055;-76
2022/09/20 10:32:30;;;;;;;4.57;2.13;;;19.40;69.10;;;;;;5071530;28;20044;-76
2022/09/20 10:34:56;;;;;;;5.30;2.38;;;19.40;69.10;;;;;;5071232;28;20050;-76
2022/09/20 10:37:24;;;;;;;6.13;2.75;;;19.40;69.10;;;;;;5071395;28;20043;-76
2022/09/20 10:40:01;;;;;;;4.78;2.25;;;19.40;69.10;;;;;;5071302;28;20035;-76
2022/09/20 10:45:40;;;;;;;5.57;2.30;;;19.40;69.10;;;;;;5057644;28;20039;-76
2022/09/20 10:48:24;;;;;;;5.75;2.60;;;19.40;69.10;;;;;;5055150;28;20025;-76
2022/09/20 10:50:59;;;;;;;5.45;2.33;;;19.40;69.10;;;;;;5095598;28;20076;-76
2022/09/20 10:53:28;;;;;;;5.75;2.25;;;19.40;69.10;;;;;;5113537;28;20024;-76
2022/09/20 10:56:13;;;;;;;5.65;2.60;;;19.40;69.10;;;;;;5113467;28;20501;-76
2022/09/20 10:59:19;;;;;;;5.30;2.50;;;19.40;69.20;;;;;;5113751;28;20012;-76
2022/09/20 11:01:58;;;;;;;4.47;2.28;;;19.30;69.10;;;;;;5099562;28;20081;-76
2022/09/20 11:04:41;;;;;;;4.95;2.67;;;19.40;69.20;;;;;;5112330;28;20016;-76
2022/09/20 11:07:25;;;;;;;4.72;2.33;;;19.40;69.10;;;;;;5113160;28;20023;-76
2022/09/20 11:10:14;;;;;;;4.72;2.60;;;19.40;69.10;;;;;;5081187;28;20504;-76
2022/09/20 11:12:50;;;;;;;6.95;2.63;;;19.30;69.10;;;;;;5071613;28;20111;-76
2022/09/20 11:15:26;;;;;;;6.70;2.40;;;19.40;69.20;;;;;;5071291;28;20024;-76
2022/09/20 11:18:12;;;;;;;4.93;2.28;;;19.40;69.20;;;;;;5105152;28;20031;-76
2022/09/20 11:20:50;;;;;;;4.90;2.28;;;19.40;69.20;;;;;;5112748;28;20035;-76
2022/09/20 11:23:21;;;;;;;3.60;2.03;;;19.40;69.20;;;;;;5095483;28;20490;-76
2022/09/20 11:26:04;;;;;;;4.28;2.45;;;19.40;69.20;;;;;;5095140;28;20026;-76
2022/09/20 11:28:35;;;;;;;4.07;1.88;;;19.40;69.20;;;;;;5096085;28;20046;-76
2022/09/20 11:31:29;;;;;;;5.47;2.35;;;19.40;69.30;;;;;;5113129;28;20103;-76
2022/09/20 11:34:00;;;;;;;5.40;2.15;;;19.40;69.30;;;;;;5111523;28;20119;-76
2022/09/20 11:36:30;;;;;;;6.03;2.35;;;19.40;69.30;;;;;;5110678;28;20027;-76
2022/09/20 11:39:29;;;;;;;3.70;1.90;;;19.40;69.30;;;;;;5111939;28;20015;-76
2022/09/20 11:41:56;;;;;;;4.35;2.13;;;19.40;69.30;;;;;;5111544;28;20015;-76
2022/09/20 11:44:21;;;;;;;4.45;2.10;;;19.30;69.30;;;;;;5094810;28;20027;-76
2022/09/20 11:47:01;;;;;;;5.32;2.05;;;19.40;69.40;;;;;;5111634;28;20023;-76
2022/09/20 11:49:29;;;;;;;2.92;1.88;;;19.40;69.40;;;;;;5111550;28;20047;-76
2022/09/20 11:52:06;;;;;;;4.55;2.30;;;19.30;69.30;;;;;;5112502;28;20574;-76
2022/09/20 11:54:49;;;;;;;3.47;2.00;;;19.30;69.40;;;;;;5112641;28;20023;-76
2022/09/20 11:57:15;;;;;;;3.45;1.80;;;19.40;69.40;;;;;;5111497;28;20031;-76
2022/09/20 11:59:42;;;;;;;3.10;1.70;;;19.30;69.40;;;;;;5111499;28;20605;-76
2022/09/20 12:02:43;;;;;;;3.80;2.08;;;19.40;69.50;;;;;;5094577;28;20106;-76
2022/09/20 12:05:34;;;;;;;3.63;1.73;;;19.30;69.50;;;;;;5098004;28;20032;-76
2022/09/20 12:08:02;;;;;;;2.67;2.22;;;19.40;69.50;;;;;;5111713;28;20445;-76
2022/09/20 12:10:34;;;;;;;4.85;1.92;;;19.40;69.50;;;;;;5070719;28;20025;-76
2022/09/20 12:13:04;;;;;;;4.25;2.05;;;19.30;69.50;;;;;;5071008;28;20057;-76
2022/09/20 12:15:39;;;;;;;4.60;2.13;;;19.40;69.50;;;;;;5070830;28;20032;-76
2022/09/20 12:18:07;;;;;;;5.57;2.00;;;19.40;69.60;;;;;;5108047;28;20051;-76
2022/09/20 12:20:41;;;;;;;4.22;2.15;;;19.40;69.60;;;;;;5112283;28;20020;-76
2022/09/20 12:23:48;;;;;;;2.72;1.98;;;19.30;69.60;;;;;;5112454;28;20024;-76
2022/09/20 12:26:20;;;;;;;5.80;2.25;;;19.40;69.50;;;;;;5101294;28;20277;-76
2022/09/20 12:28:53;;;;;;;3.53;1.77;;;19.40;69.60;;;;;;5112540;28;20024;-76
2022/09/20 12:31:27;;;;;;;4.90;2.10;;;19.40;69.70;;;;;;5095187;28;20323;-76
2022/09/20 12:34:00;;;;;;;2.55;2.00;;;19.40;69.80;;;;;;5112302;28;20555;-76
2022/09/20 12:36:27;;;;;;;3.38;2.05;;;19.40;69.60;;;;;;5110910;28;20019;-76
2022/09/20 12:39:03;;;;;;;3.67;1.90;;;19.40;69.70;;;;;;5111355;28;20020;-76
2022/09/20 12:41:44;;;;;;;4.00;1.90;;;19.40;69.70;;;;;;5111285;28;20024;-76
2022/09/20 12:44:34;;;;;;;3.33;2.08;;;19.40;69.70;;;;;;5094439;28;20089;-76
2022/09/20 12:47:01;;;;;;;4.15;1.77;;;19.40;69.70;;;;;;5112930;28;20016;-76
2022/09/20 12:55:30;;;;;;;5.13;2.10;;;19.40;69.80;;;;;;5115807;28;20124;-76
2022/09/20 12:58:01;;;;;;;2.25;1.67;;;19.40;70.90;;;;;;5114804;28;20023;-76
2022/09/20 13:00:35;;;;;;;3.38;1.75;;;19.30;69.90;;;;;;5114668;28;20028;-77
2022/09/20 13:03:02;;;;;;;2.88;2.08;;;19.40;69.90;;;;;;5115776;28;20004;-76
2022/09/20 13:05:31;;;;;;;2.53;1.73;;;19.40;69.90;;;;;;5114467;28;20031;-76
2022/09/20 13:08:01;;;;;;;2.97;1.85;;;19.40;69.90;;;;;;5097741;28;20068;-76
2022/09/20 13:10:33;;;;;;;2.42;1.50;;;19.40;70.00;;;;;;5073751;28;20032;-76
2022/09/20 13:13:02;;;;;;;2.35;1.95;;;19.40;69.90;;;;;;5057731;28;20017;-76
2022/09/20 13:15:28;;;;;;;3.97;1.77;;;19.50;70.00;;;;;;5057502;28;20120;-77
2022/09/20 13:17:55;;;;;;;3.00;2.00;;;19.40;70.00;;;;;;5107490;28;20110;-76
2022/09/20 13:20:23;;;;;;;3.08;1.80;;;19.40;70.00;;;;;;5114282;28;20065;-77
2022/09/20 13:22:49;;;;;;;2.60;1.40;;;19.40;70.00;;;;;;5114451;28;20030;-77
2022/09/20 13:25:15;;;;;;;2.83;2.15;;;19.50;70.00;;;;;;5097244;28;20023;-77
2022/09/20 13:27:53;;;;;;;2.80;1.73;;;19.50;70.10;;;;;;5097312;28;20040;-77
2022/09/20 13:30:27;;;;;;;2.17;1.58;;;19.50;70.00;;;;;;5114197;28;20540;-77
2022/09/20 13:32:53;;;;;;;3.00;1.50;;;19.50;70.10;;;;;;5097789;28;20034;-76
2022/09/20 13:35:30;;;;;;;2.50;1.45;;;19.50;70.10;;;;;;5115291;28;20506;-77
2022/09/20 13:37:57;;;;;;;3.83;1.60;;;19.50;70.20;;;;;;5114059;28;20571;-76
2022/09/20 13:40:32;;;;;;;2.63;1.58;;;19.50;70.20;;;;;;5113967;28;20047;-77
2022/09/20 13:42:58;;;;;;;3.17;1.80;;;19.50;70.10;;;;;;5114100;28;20027;-76
2022/09/20 13:45:24;;;;;;;2.60;1.90;;;19.50;70.10;;;;;;5096986;28;20022;-77
2022/09/20 13:47:51;;;;;;;4.15;1.70;;;19.50;71.10;;;;;;5096742;28;20425;-77
2022/09/20 13:50:20;;;;;;;2.47;1.80;;;19.50;70.10;;;;;;5114790;28;20040;-77
2022/09/20 13:52:50;;;;;;;4.65;1.95;;;19.50;70.20;;;;;;5113993;28;20542;-76
2022/09/20 13:55:21;;;;;;;2.88;1.88;;;19.50;70.10;;;;;;5113578;28;20024;-77